Terminal Aerodrome Forecast
Issued by NWS Sterling, VA

Current Version | Previous Version | Graphics & Text | Print | Product List | Glossary On
Versions: 1 2 3 4 5 6 7 8 9 10 11 12 13
000
FTUS41 KLWX 242300
TAFMRB
TAF
KMRB 242331Z 2500/2524 19007KT P6SM SKC
     FM250600 28009KT P6SM SCT250
     FM251300 29010G16KT P6SM SCT250
     FM252200 32005KT P6SM BKN150=

USA.gov is the U.S. government's official web portal to all federal, state and local government web resources and services.